Leshara, Nebraska
Current Conditions -  °F | °C
As of 12:35 AM on Saturday 25 Oct 2014 (Local Time) from KFET Reporting Station
Clear Clear  
Wind Chill: 51°   Ceiling: Unl
Heat Index: 51°   Visibility: 10mi
Dew Point: 47°   Wind: 3mph
Humidity: 85%   Direction: 290°WNW
Pressure: 30.02"   Gusts: NA
Location:  41.33°N, 96.43°W
Report Text: KFET 250535Z AUTO 29003KT 10SM CLR 11/08 A3002 RMK AO2 T01060082
Loading
Personal Weather Stations






























Interactive Weather Map
Tropical Storm Tracking
New forecast layout! Learn more

10-Day Weather Forecast

Advertisements
Track Severe Weather on mobile